sensor_id;sensor_type;location;lat;lon;timestamp;P1;durP1;ratioP1;P2;durP2;ratioP2
14394;SDS011;7282;49.204;10.652;2022-09-09T00:00:14;2.50;;;2.30;;
14394;SDS011;7282;49.204;10.652;2022-09-09T00:02:42;3.40;;;2.70;;
14394;SDS011;7282;49.204;10.652;2022-09-09T00:07:48;2.80;;;2.60;;
14394;SDS011;7282;49.204;10.652;2022-09-09T00:10:22;2.70;;;2.30;;
14394;SDS011;7282;49.204;10.652;2022-09-09T00:15:18;2.67;;;2.47;;
14394;SDS011;7282;49.204;10.652;2022-09-09T00:17:57;2.73;;;2.53;;
14394;SDS011;7282;49.204;10.652;2022-09-09T00:23:12;2.80;;;2.50;;
14394;SDS011;7282;49.204;10.652;2022-09-09T00:28:18;3.07;;;2.40;;
14394;SDS011;7282;49.204;10.652;2022-09-09T00:30:46;3.10;;;2.80;;
14394;SDS011;7282;49.204;10.652;2022-09-09T00:33:16;3.40;;;2.60;;
14394;SDS011;7282;49.204;10.652;2022-09-09T00:35:45;2.57;;;2.37;;
14394;SDS011;7282;49.204;10.652;2022-09-09T00:38:14;2.60;;;2.40;;
14394;SDS011;7282;49.204;10.652;2022-09-09T00:40:45;4.50;;;2.80;;
14394;SDS011;7282;49.204;10.652;2022-09-09T00:46:00;3.00;;;2.67;;
14394;SDS011;7282;49.204;10.652;2022-09-09T00:48:29;2.60;;;2.40;;
14394;SDS011;7282;49.204;10.652;2022-09-09T00:50:55;3.20;;;2.10;;
14394;SDS011;7282;49.204;10.652;2022-09-09T00:53:31;2.57;;;2.37;;
14394;SDS011;7282;49.204;10.652;2022-09-09T00:56:20;4.10;;;2.60;;
14394;SDS011;7282;49.204;10.652;2022-09-09T00:58:48;2.83;;;2.30;;
14394;SDS011;7282;49.204;10.652;2022-09-09T01:01:13;2.93;;;2.63;;
14394;SDS011;7282;49.204;10.652;2022-09-09T01:03:50;3.47;;;2.40;;
14394;SDS011;7282;49.204;10.652;2022-09-09T01:06:30;3.73;;;2.50;;
14394;SDS011;7282;49.204;10.652;2022-09-09T01:11:43;2.63;;;2.43;;
14394;SDS011;7282;49.204;10.652;2022-09-09T01:16:54;4.43;;;2.53;;
14394;SDS011;7282;49.204;10.652;2022-09-09T01:19:24;3.33;;;2.87;;
14394;SDS011;7282;49.204;10.652;2022-09-09T01:22:01;3.10;;;2.30;;
14394;SDS011;7282;49.204;10.652;2022-09-09T01:24:22;3.30;;;2.70;;
14394;SDS011;7282;49.204;10.652;2022-09-09T01:26:50;2.47;;;2.27;;
14394;SDS011;7282;49.204;10.652;2022-09-09T01:29:18;3.20;;;2.27;;
14394;SDS011;7282;49.204;10.652;2022-09-09T01:31:52;3.93;;;2.60;;
14394;SDS011;7282;49.204;10.652;2022-09-09T01:34:20;4.03;;;2.70;;
14394;SDS011;7282;49.204;10.652;2022-09-09T01:39:17;3.10;;;2.37;;
14394;SDS011;7282;49.204;10.652;2022-09-09T01:41:44;3.10;;;2.63;;
14394;SDS011;7282;49.204;10.652;2022-09-09T01:44:10;2.60;;;2.40;;
14394;SDS011;7282;49.204;10.652;2022-09-09T01:46:37;2.80;;;2.50;;
14394;SDS011;7282;49.204;10.652;2022-09-09T01:49:05;3.03;;;2.57;;
14394;SDS011;7282;49.204;10.652;2022-09-09T01:51:33;4.43;;;2.63;;
14394;SDS011;7282;49.204;10.652;2022-09-09T01:54:01;3.03;;;2.30;;
14394;SDS011;7282;49.204;10.652;2022-09-09T01:56:31;3.37;;;2.70;;
14394;SDS011;7282;49.204;10.652;2022-09-09T01:59:07;2.53;;;2.33;;
14394;SDS011;7282;49.204;10.652;2022-09-09T02:01:41;3.10;;;2.50;;
14394;SDS011;7282;49.204;10.652;2022-09-09T02:04:03;3.50;;;2.60;;
14394;SDS011;7282;49.204;10.652;2022-09-09T02:06:34;3.13;;;2.83;;
14394;SDS011;7282;49.204;10.652;2022-09-09T02:09:00;2.60;;;2.40;;
14394;SDS011;7282;49.204;10.652;2022-09-09T02:11:28;2.60;;;2.40;;
14394;SDS011;7282;49.204;10.652;2022-09-09T02:14:01;3.10;;;2.80;;
14394;SDS011;7282;49.204;10.652;2022-09-09T02:21:33;2.70;;;2.47;;
14394;SDS011;7282;49.204;10.652;2022-09-09T02:24:03;3.37;;;2.17;;
14394;SDS011;7282;49.204;10.652;2022-09-09T02:26:31;4.03;;;2.77;;
14394;SDS011;7282;49.204;10.652;2022-09-09T02:28:59;5.60;;;2.70;;
14394;SDS011;7282;49.204;10.652;2022-09-09T02:31:27;3.07;;;2.23;;
14394;SDS011;7282;49.204;10.652;2022-09-09T02:33:55;2.23;;;2.03;;
14394;SDS011;7282;49.204;10.652;2022-09-09T02:36:23;3.33;;;2.13;;
14394;SDS011;7282;49.204;10.652;2022-09-09T02:38:52;2.30;;;2.10;;
14394;SDS011;7282;49.204;10.652;2022-09-09T02:41:20;3.37;;;2.47;;
14394;SDS011;7282;49.204;10.652;2022-09-09T02:43:48;3.93;;;2.50;;
14394;SDS011;7282;49.204;10.652;2022-09-09T02:46:33;2.70;;;2.17;;
14394;SDS011;7282;49.204;10.652;2022-09-09T02:49:03;2.30;;;2.10;;
14394;SDS011;7282;49.204;10.652;2022-09-09T02:56:52;2.47;;;2.27;;
14394;SDS011;7282;49.204;10.652;2022-09-09T02:59:22;2.47;;;2.23;;
14394;SDS011;7282;49.204;10.652;2022-09-09T03:01:51;2.20;;;2.10;;
14394;SDS011;7282;49.204;10.652;2022-09-09T03:04:19;4.43;;;2.50;;
14394;SDS011;7282;49.204;10.652;2022-09-09T03:06:46;3.33;;;2.33;;
14394;SDS011;7282;49.204;10.652;2022-09-09T03:09:13;2.40;;;2.20;;
14394;SDS011;7282;49.204;10.652;2022-09-09T03:11:39;3.90;;;2.83;;
14394;SDS011;7282;49.204;10.652;2022-09-09T03:14:06;4.07;;;2.50;;
14394;SDS011;7282;49.204;10.652;2022-09-09T03:16:33;2.97;;;2.40;;
14394;SDS011;7282;49.204;10.652;2022-09-09T03:19:00;3.60;;;2.73;;
14394;SDS011;7282;49.204;10.652;2022-09-09T03:21:27;3.07;;;2.60;;
14394;SDS011;7282;49.204;10.652;2022-09-09T03:23:54;4.43;;;2.47;;
14394;SDS011;7282;49.204;10.652;2022-09-09T03:26:21;2.40;;;2.20;;
14394;SDS011;7282;49.204;10.652;2022-09-09T03:28:49;3.40;;;3.10;;
14394;SDS011;7282;49.204;10.652;2022-09-09T03:31:17;4.90;;;2.50;;
14394;SDS011;7282;49.204;10.652;2022-09-09T03:33:45;3.50;;;2.47;;
14394;SDS011;7282;49.204;10.652;2022-09-09T03:36:12;2.90;;;2.60;;
14394;SDS011;7282;49.204;10.652;2022-09-09T03:38:39;3.10;;;2.40;;
14394;SDS011;7282;49.204;10.652;2022-09-09T03:41:05;2.70;;;2.50;;
14394;SDS011;7282;49.204;10.652;2022-09-09T03:43:33;2.47;;;2.27;;
14394;SDS011;7282;49.204;10.652;2022-09-09T03:46:00;3.23;;;2.17;;
14394;SDS011;7282;49.204;10.652;2022-09-09T03:48:27;2.50;;;2.20;;
14394;SDS011;7282;49.204;10.652;2022-09-09T03:50:54;3.33;;;2.00;;
14394;SDS011;7282;49.204;10.652;2022-09-09T03:53:23;4.23;;;2.53;;
14394;SDS011;7282;49.204;10.652;2022-09-09T03:55:51;2.53;;;1.90;;
14394;SDS011;7282;49.204;10.652;2022-09-09T03:58:21;2.73;;;2.37;;
14394;SDS011;7282;49.204;10.652;2022-09-09T04:00:53;5.80;;;2.27;;
14394;SDS011;7282;49.204;10.652;2022-09-09T04:03:23;2.40;;;2.20;;
14394;SDS011;7282;49.204;10.652;2022-09-09T04:05:51;6.30;;;2.67;;
14394;SDS011;7282;49.204;10.652;2022-09-09T04:08:18;4.03;;;2.47;;
14394;SDS011;7282;49.204;10.652;2022-09-09T04:10:49;4.53;;;2.30;;
14394;SDS011;7282;49.204;10.652;2022-09-09T04:13:13;2.43;;;1.90;;
14394;SDS011;7282;49.204;10.652;2022-09-09T04:15:42;2.83;;;2.30;;
14394;SDS011;7282;49.204;10.652;2022-09-09T04:18:09;2.17;;;2.00;;
14394;SDS011;7282;49.204;10.652;2022-09-09T04:20:35;3.20;;;2.53;;
14394;SDS011;7282;49.204;10.652;2022-09-09T04:23:02;3.40;;;2.50;;
14394;SDS011;7282;49.204;10.652;2022-09-09T04:25:29;2.33;;;2.13;;
14394;SDS011;7282;49.204;10.652;2022-09-09T04:27:56;3.67;;;2.50;;
14394;SDS011;7282;49.204;10.652;2022-09-09T04:30:24;4.30;;;2.53;;
14394;SDS011;7282;49.204;10.652;2022-09-09T04:32:51;2.47;;;2.27;;
14394;SDS011;7282;49.204;10.652;2022-09-09T04:35:17;3.00;;;2.67;;
14394;SDS011;7282;49.204;10.652;2022-09-09T04:37:46;5.77;;;3.10;;
14394;SDS011;7282;49.204;10.652;2022-09-09T04:40:14;3.20;;;2.47;;
14394;SDS011;7282;49.204;10.652;2022-09-09T04:42:41;5.03;;;3.23;;
14394;SDS011;7282;49.204;10.652;2022-09-09T04:45:09;4.23;;;2.93;;
14394;SDS011;7282;49.204;10.652;2022-09-09T04:47:37;3.23;;;2.93;;
14394;SDS011;7282;49.204;10.652;2022-09-09T04:50:04;3.10;;;2.80;;
14394;SDS011;7282;49.204;10.652;2022-09-09T04:52:31;3.60;;;3.00;;
14394;SDS011;7282;49.204;10.652;2022-09-09T04:54:58;5.03;;;3.27;;
14394;SDS011;7282;49.204;10.652;2022-09-09T04:57:24;3.43;;;2.87;;
14394;SDS011;7282;49.204;10.652;2022-09-09T04:59:51;4.30;;;3.00;;
14394;SDS011;7282;49.204;10.652;2022-09-09T05:02:18;3.83;;;2.90;;
14394;SDS011;7282;49.204;10.652;2022-09-09T05:04:45;4.70;;;2.90;;
14394;SDS011;7282;49.204;10.652;2022-09-09T05:07:11;3.27;;;2.77;;
14394;SDS011;7282;49.204;10.652;2022-09-09T05:09:40;4.47;;;2.80;;
14394;SDS011;7282;49.204;10.652;2022-09-09T05:12:06;6.33;;;3.20;;
14394;SDS011;7282;49.204;10.652;2022-09-09T05:14:34;4.07;;;3.40;;
14394;SDS011;7282;49.204;10.652;2022-09-09T05:17:03;4.77;;;3.33;;
14394;SDS011;7282;49.204;10.652;2022-09-09T05:19:30;8.40;;;3.47;;
14394;SDS011;7282;49.204;10.652;2022-09-09T05:21:57;4.23;;;2.90;;
14394;SDS011;7282;49.204;10.652;2022-09-09T05:24:23;3.70;;;3.00;;
14394;SDS011;7282;49.204;10.652;2022-09-09T05:26:50;7.40;;;4.20;;
14394;SDS011;7282;49.204;10.652;2022-09-09T05:29:17;13.80;;;6.87;;
14394;SDS011;7282;49.204;10.652;2022-09-09T05:31:46;13.03;;;8.27;;
14394;SDS011;7282;49.204;10.652;2022-09-09T05:34:13;11.53;;;6.70;;
14394;SDS011;7282;49.204;10.652;2022-09-09T05:36:39;8.70;;;4.70;;
14394;SDS011;7282;49.204;10.652;2022-09-09T05:39:11;6.20;;;4.93;;
14394;SDS011;7282;49.204;10.652;2022-09-09T05:41:35;5.20;;;4.07;;
14394;SDS011;7282;49.204;10.652;2022-09-09T05:44:01;6.93;;;3.87;;
14394;SDS011;7282;49.204;10.652;2022-09-09T05:46:29;5.60;;;4.10;;
14394;SDS011;7282;49.204;10.652;2022-09-09T05:48:56;4.03;;;3.57;;
14394;SDS011;7282;49.204;10.652;2022-09-09T05:51:25;7.73;;;4.00;;
14394;SDS011;7282;49.204;10.652;2022-09-09T05:53:52;4.40;;;3.67;;
14394;SDS011;7282;49.204;10.652;2022-09-09T05:56:22;5.00;;;3.93;;
14394;SDS011;7282;49.204;10.652;2022-09-09T05:58:49;4.20;;;3.63;;
14394;SDS011;7282;49.204;10.652;2022-09-09T06:01:18;4.23;;;3.83;;
14394;SDS011;7282;49.204;10.652;2022-09-09T06:03:45;6.00;;;4.20;;
14394;SDS011;7282;49.204;10.652;2022-09-09T06:06:14;7.20;;;4.37;;
14394;SDS011;7282;49.204;10.652;2022-09-09T06:08:42;8.73;;;4.23;;
14394;SDS011;7282;49.204;10.652;2022-09-09T06:11:12;6.43;;;4.57;;
14394;SDS011;7282;49.204;10.652;2022-09-09T06:13:39;5.87;;;4.43;;
14394;SDS011;7282;49.204;10.652;2022-09-09T06:16:08;5.90;;;4.60;;
14394;SDS011;7282;49.204;10.652;2022-09-09T06:18:35;7.27;;;6.00;;
14394;SDS011;7282;49.204;10.652;2022-09-09T06:21:02;7.97;;;4.40;;
14394;SDS011;7282;49.204;10.652;2022-09-09T06:23:30;5.30;;;3.83;;
14394;SDS011;7282;49.204;10.652;2022-09-09T06:26:07;5.90;;;4.23;;
14394;SDS011;7282;49.204;10.652;2022-09-09T06:28:34;7.93;;;4.30;;
14394;SDS011;7282;49.204;10.652;2022-09-09T06:31:01;6.23;;;4.27;;
14394;SDS011;7282;49.204;10.652;2022-09-09T06:33:37;6.57;;;4.63;;
14394;SDS011;7282;49.204;10.652;2022-09-09T06:36:05;5.97;;;4.93;;
14394;SDS011;7282;49.204;10.652;2022-09-09T06:38:32;7.90;;;4.70;;
14394;SDS011;7282;49.204;10.652;2022-09-09T06:40:59;4.70;;;3.43;;
14394;SDS011;7282;49.204;10.652;2022-09-09T06:43:25;7.00;;;4.17;;
14394;SDS011;7282;49.204;10.652;2022-09-09T06:45:53;10.57;;;6.03;;
14394;SDS011;7282;49.204;10.652;2022-09-09T06:48:20;9.97;;;5.83;;
14394;SDS011;7282;49.204;10.652;2022-09-09T06:50:47;10.47;;;5.67;;
14394;SDS011;7282;49.204;10.652;2022-09-09T06:53:16;8.10;;;5.63;;
14394;SDS011;7282;49.204;10.652;2022-09-09T06:55:45;8.13;;;5.10;;
14394;SDS011;7282;49.204;10.652;2022-09-09T06:58:12;4.47;;;3.70;;
14394;SDS011;7282;49.204;10.652;2022-09-09T07:00:39;3.43;;;3.13;;
14394;SDS011;7282;49.204;10.652;2022-09-09T07:03:05;4.10;;;3.50;;
14394;SDS011;7282;49.204;10.652;2022-09-09T07:05:32;7.37;;;4.20;;
14394;SDS011;7282;49.204;10.652;2022-09-09T07:07:59;6.37;;;3.63;;
14394;SDS011;7282;49.204;10.652;2022-09-09T07:10:25;4.17;;;3.10;;
14394;SDS011;7282;49.204;10.652;2022-09-09T07:12:52;2.53;;;2.30;;
14394;SDS011;7282;49.204;10.652;2022-09-09T07:15:19;3.90;;;2.10;;
14394;SDS011;7282;49.204;10.652;2022-09-09T07:17:45;4.40;;;2.13;;
14394;SDS011;7282;49.204;10.652;2022-09-09T07:20:12;2.97;;;1.90;;
14394;SDS011;7282;49.204;10.652;2022-09-09T07:22:40;5.73;;;2.30;;
14394;SDS011;7282;49.204;10.652;2022-09-09T07:25:07;3.93;;;2.13;;
14394;SDS011;7282;49.204;10.652;2022-09-09T07:27:34;2.60;;;1.87;;
14394;SDS011;7282;49.204;10.652;2022-09-09T07:30:01;2.60;;;2.00;;
14394;SDS011;7282;49.204;10.652;2022-09-09T07:32:28;5.63;;;2.50;;
14394;SDS011;7282;49.204;10.652;2022-09-09T07:34:56;3.50;;;2.13;;
14394;SDS011;7282;49.204;10.652;2022-09-09T07:37:24;2.40;;;1.80;;
14394;SDS011;7282;49.204;10.652;2022-09-09T07:39:51;3.63;;;2.20;;
14394;SDS011;7282;49.204;10.652;2022-09-09T07:42:18;5.40;;;2.30;;
14394;SDS011;7282;49.204;10.652;2022-09-09T07:44:45;8.20;;;3.80;;
14394;SDS011;7282;49.204;10.652;2022-09-09T07:47:12;4.97;;;2.03;;
14394;SDS011;7282;49.204;10.652;2022-09-09T07:49:38;4.00;;;1.63;;
14394;SDS011;7282;49.204;10.652;2022-09-09T07:52:05;3.10;;;1.97;;
14394;SDS011;7282;49.204;10.652;2022-09-09T07:54:32;5.43;;;3.10;;
14394;SDS011;7282;49.204;10.652;2022-09-09T07:56:59;3.57;;;1.60;;
14394;SDS011;7282;49.204;10.652;2022-09-09T07:59:25;2.67;;;1.60;;
14394;SDS011;7282;49.204;10.652;2022-09-09T08:01:53;1.60;;;1.50;;
14394;SDS011;7282;49.204;10.652;2022-09-09T08:04:21;3.30;;;1.53;;
14394;SDS011;7282;49.204;10.652;2022-09-09T08:07:02;3.63;;;1.97;;
14394;SDS011;7282;49.204;10.652;2022-09-09T08:09:26;1.47;;;1.20;;
14394;SDS011;7282;49.204;10.652;2022-09-09T08:11:55;2.73;;;1.50;;
14394;SDS011;7282;49.204;10.652;2022-09-09T08:14:24;3.77;;;1.53;;
14394;SDS011;7282;49.204;10.652;2022-09-09T08:16:50;2.00;;;1.30;;
14394;SDS011;7282;49.204;10.652;2022-09-09T08:19:19;1.50;;;1.23;;
14394;SDS011;7282;49.204;10.652;2022-09-09T08:21:45;2.97;;;1.30;;
14394;SDS011;7282;49.204;10.652;2022-09-09T08:24:17;6.40;;;1.97;;
14394;SDS011;7282;49.204;10.652;2022-09-09T08:26:42;3.57;;;1.50;;
14394;SDS011;7282;49.204;10.652;2022-09-09T08:29:09;3.33;;;1.53;;
14394;SDS011;7282;49.204;10.652;2022-09-09T08:31:37;2.00;;;1.30;;
14394;SDS011;7282;49.204;10.652;2022-09-09T08:34:04;3.93;;;1.50;;
14394;SDS011;7282;49.204;10.652;2022-09-09T08:36:32;1.80;;;1.50;;
14394;SDS011;7282;49.204;10.652;2022-09-09T08:39:00;3.63;;;1.70;;
14394;SDS011;7282;49.204;10.652;2022-09-09T08:41:45;2.03;;;1.30;;
14394;SDS011;7282;49.204;10.652;2022-09-09T08:44:12;3.07;;;1.40;;
14394;SDS011;7282;49.204;10.652;2022-09-09T08:51:44;5.00;;;1.70;;
14394;SDS011;7282;49.204;10.652;2022-09-09T08:54:10;3.93;;;1.50;;
14394;SDS011;7282;49.204;10.652;2022-09-09T08:56:37;4.97;;;1.77;;
14394;SDS011;7282;49.204;10.652;2022-09-09T08:59:04;1.10;;;1.00;;
14394;SDS011;7282;49.204;10.652;2022-09-09T09:07:06;2.90;;;1.47;;
14394;SDS011;7282;49.204;10.652;2022-09-09T09:09:46;2.27;;;1.10;;
14394;SDS011;7282;49.204;10.652;2022-09-09T09:12:19;3.17;;;1.30;;
14394;SDS011;7282;49.204;10.652;2022-09-09T09:14:47;2.60;;;1.20;;
14394;SDS011;7282;49.204;10.652;2022-09-09T09:17:18;2.20;;;1.30;;
14394;SDS011;7282;49.204;10.652;2022-09-09T09:19:46;2.17;;;1.30;;
14394;SDS011;7282;49.204;10.652;2022-09-09T09:22:20;3.57;;;1.30;;
14394;SDS011;7282;49.204;10.652;2022-09-09T09:24:52;2.03;;;1.40;;
14394;SDS011;7282;49.204;10.652;2022-09-09T09:28:03;4.97;;;1.37;;
14394;SDS011;7282;49.204;10.652;2022-09-09T09:29:51;1.00;;;0.90;;
14394;SDS011;7282;49.204;10.652;2022-09-09T09:32:18;2.97;;;1.37;;
14394;SDS011;7282;49.204;10.652;2022-09-09T09:34:56;2.93;;;1.13;;
14394;SDS011;7282;49.204;10.652;2022-09-09T09:37:29;2.70;;;1.30;;
14394;SDS011;7282;49.204;10.652;2022-09-09T09:40:07;2.10;;;1.20;;
14394;SDS011;7282;49.204;10.652;2022-09-09T09:42:25;2.30;;;0.97;;
14394;SDS011;7282;49.204;10.652;2022-09-09T09:44:51;2.77;;;1.30;;
14394;SDS011;7282;49.204;10.652;2022-09-09T09:47:23;1.90;;;1.20;;
14394;SDS011;7282;49.204;10.652;2022-09-09T09:49:56;1.70;;;1.13;;
14394;SDS011;7282;49.204;10.652;2022-09-09T09:52:26;3.90;;;1.90;;
14394;SDS011;7282;49.204;10.652;2022-09-09T09:54:54;2.13;;;1.30;;
14394;SDS011;7282;49.204;10.652;2022-09-09T09:57:28;3.43;;;1.30;;
14394;SDS011;7282;49.204;10.652;2022-09-09T10:02:41;4.03;;;1.20;;
14394;SDS011;7282;49.204;10.652;2022-09-09T10:05:16;2.13;;;1.00;;
14394;SDS011;7282;49.204;10.652;2022-09-09T10:07:44;2.53;;;1.23;;
14394;SDS011;7282;49.204;10.652;2022-09-09T10:10:23;4.00;;;1.40;;
14394;SDS011;7282;49.204;10.652;2022-09-09T10:13:29;1.87;;;1.30;;
14394;SDS011;7282;49.204;10.652;2022-09-09T10:15:29;3.70;;;1.50;;
14394;SDS011;7282;49.204;10.652;2022-09-09T10:23:18;1.97;;;1.40;;
14394;SDS011;7282;49.204;10.652;2022-09-09T10:28:29;2.60;;;1.30;;
14394;SDS011;7282;49.204;10.652;2022-09-09T10:33:31;3.20;;;1.37;;
14394;SDS011;7282;49.204;10.652;2022-09-09T10:56:59;1.53;;;0.90;;
14394;SDS011;7282;49.204;10.652;2022-09-09T10:59:28;1.53;;;1.10;;
14394;SDS011;7282;49.204;10.652;2022-09-09T11:02:00;2.27;;;1.40;;
14394;SDS011;7282;49.204;10.652;2022-09-09T11:04:31;2.17;;;1.37;;
14394;SDS011;7282;49.204;10.652;2022-09-09T11:06:58;3.27;;;1.27;;
14394;SDS011;7282;49.204;10.652;2022-09-09T11:09:29;2.63;;;1.20;;
14394;SDS011;7282;49.204;10.652;2022-09-09T11:11:57;2.23;;;1.23;;
14394;SDS011;7282;49.204;10.652;2022-09-09T11:14:36;5.93;;;1.83;;
14394;SDS011;7282;49.204;10.652;2022-09-09T11:17:04;2.20;;;1.10;;
14394;SDS011;7282;49.204;10.652;2022-09-09T11:22:07;2.63;;;1.47;;
14394;SDS011;7282;49.204;10.652;2022-09-09T11:24:33;2.23;;;1.30;;
14394;SDS011;7282;49.204;10.652;2022-09-09T11:27:12;3.63;;;1.40;;
14394;SDS011;7282;49.204;10.652;2022-09-09T11:32:08;3.00;;;1.40;;
14394;SDS011;7282;49.204;10.652;2022-09-09T11:34:37;2.13;;;1.30;;
14394;SDS011;7282;49.204;10.652;2022-09-09T11:42:23;3.37;;;1.50;;
14394;SDS011;7282;49.204;10.652;2022-09-09T11:44:50;4.17;;;1.70;;
14394;SDS011;7282;49.204;10.652;2022-09-09T11:49:54;3.27;;;1.33;;
14394;SDS011;7282;49.204;10.652;2022-09-09T11:52:34;2.30;;;1.40;;
14394;SDS011;7282;49.204;10.652;2022-09-09T11:54:54;3.77;;;1.43;;
14394;SDS011;7282;49.204;10.652;2022-09-09T11:59:50;2.17;;;1.20;;
14394;SDS011;7282;49.204;10.652;2022-09-09T12:02:23;3.47;;;1.30;;
14394;SDS011;7282;49.204;10.652;2022-09-09T12:04:49;3.67;;;1.27;;
14394;SDS011;7282;49.204;10.652;2022-09-09T12:10:03;1.20;;;1.00;;
14394;SDS011;7282;49.204;10.652;2022-09-09T12:12:31;3.43;;;1.23;;
14394;SDS011;7282;49.204;10.652;2022-09-09T12:15:00;4.57;;;1.53;;
14394;SDS011;7282;49.204;10.652;2022-09-09T12:17:28;3.53;;;1.33;;
14394;SDS011;7282;49.204;10.652;2022-09-09T12:20:15;3.23;;;1.20;;
14394;SDS011;7282;49.204;10.652;2022-09-09T12:22:45;2.33;;;1.20;;
14394;SDS011;7282;49.204;10.652;2022-09-09T12:27:59;2.87;;;1.17;;
14394;SDS011;7282;49.204;10.652;2022-09-09T12:30:24;2.63;;;1.00;;
14394;SDS011;7282;49.204;10.652;2022-09-09T12:33:00;2.67;;;1.43;;
14394;SDS011;7282;49.204;10.652;2022-09-09T12:35:27;1.30;;;0.93;;
14394;SDS011;7282;49.204;10.652;2022-09-09T12:37:56;1.77;;;0.83;;
14394;SDS011;7282;49.204;10.652;2022-09-09T12:40:27;3.20;;;1.30;;
14394;SDS011;7282;49.204;10.652;2022-09-09T12:42:55;3.03;;;1.33;;
14394;SDS011;7282;49.204;10.652;2022-09-09T12:45:22;4.00;;;1.27;;
14394;SDS011;7282;49.204;10.652;2022-09-09T12:47:56;1.03;;;0.93;;
14394;SDS011;7282;49.204;10.652;2022-09-09T12:50:24;1.27;;;1.10;;
14394;SDS011;7282;49.204;10.652;2022-09-09T12:52:57;2.07;;;1.10;;
14394;SDS011;7282;49.204;10.652;2022-09-09T12:55:28;1.30;;;1.00;;
14394;SDS011;7282;49.204;10.652;2022-09-09T12:57:53;1.73;;;1.10;;
14394;SDS011;7282;49.204;10.652;2022-09-09T13:00:21;3.13;;;1.10;;
14394;SDS011;7282;49.204;10.652;2022-09-09T13:02:56;2.67;;;1.07;;
14394;SDS011;7282;49.204;10.652;2022-09-09T13:05:27;1.70;;;1.00;;
14394;SDS011;7282;49.204;10.652;2022-09-09T13:08:08;3.10;;;1.10;;
14394;SDS011;7282;49.204;10.652;2022-09-09T13:10:33;2.60;;;1.23;;
14394;SDS011;7282;49.204;10.652;2022-09-09T13:13:01;2.97;;;1.20;;
14394;SDS011;7282;49.204;10.652;2022-09-09T13:15:29;2.43;;;1.23;;
14394;SDS011;7282;49.204;10.652;2022-09-09T13:17:57;1.97;;;1.10;;
14394;SDS011;7282;49.204;10.652;2022-09-09T13:20:24;2.27;;;1.20;;
14394;SDS011;7282;49.204;10.652;2022-09-09T13:22:51;2.80;;;1.27;;
14394;SDS011;7282;49.204;10.652;2022-09-09T13:25:20;2.10;;;1.10;;
14394;SDS011;7282;49.204;10.652;2022-09-09T13:30:23;2.40;;;1.10;;
14394;SDS011;7282;49.204;10.652;2022-09-09T13:33:06;1.87;;;0.97;;
14394;SDS011;7282;49.204;10.652;2022-09-09T13:35:33;1.77;;;1.03;;
14394;SDS011;7282;49.204;10.652;2022-09-09T13:38:06;2.43;;;1.17;;
14394;SDS011;7282;49.204;10.652;2022-09-09T13:40:28;2.07;;;1.20;;
14394;SDS011;7282;49.204;10.652;2022-09-09T13:42:56;3.20;;;1.40;;
14394;SDS011;7282;49.204;10.652;2022-09-09T13:45:24;2.60;;;1.07;;
14394;SDS011;7282;49.204;10.652;2022-09-09T13:47:54;1.60;;;1.10;;
14394;SDS011;7282;49.204;10.652;2022-09-09T13:50:22;3.47;;;1.60;;
14394;SDS011;7282;49.204;10.652;2022-09-09T13:52:50;4.97;;;1.53;;
14394;SDS011;7282;49.204;10.652;2022-09-09T13:55:17;2.87;;;1.20;;
14394;SDS011;7282;49.204;10.652;2022-09-09T13:57:54;2.77;;;1.10;;
14394;SDS011;7282;49.204;10.652;2022-09-09T14:00:22;3.40;;;1.37;;
14394;SDS011;7282;49.204;10.652;2022-09-09T14:02:50;2.67;;;1.30;;
14394;SDS011;7282;49.204;10.652;2022-09-09T14:05:17;3.67;;;1.57;;
14394;SDS011;7282;49.204;10.652;2022-09-09T14:07:44;2.20;;;1.23;;
14394;SDS011;7282;49.204;10.652;2022-09-09T14:10:11;2.97;;;1.20;;
14394;SDS011;7282;49.204;10.652;2022-09-09T14:12:38;1.77;;;1.10;;
14394;SDS011;7282;49.204;10.652;2022-09-09T14:15:05;1.17;;;0.90;;
14394;SDS011;7282;49.204;10.652;2022-09-09T14:17:32;2.00;;;0.80;;
14394;SDS011;7282;49.204;10.652;2022-09-09T14:19:59;1.53;;;1.10;;
14394;SDS011;7282;49.204;10.652;2022-09-09T14:22:26;1.77;;;1.00;;
14394;SDS011;7282;49.204;10.652;2022-09-09T14:24:54;0.80;;;0.80;;
14394;SDS011;7282;49.204;10.652;2022-09-09T14:27:21;1.10;;;0.73;;
14394;SDS011;7282;49.204;10.652;2022-09-09T14:29:47;1.30;;;0.77;;
14394;SDS011;7282;49.204;10.652;2022-09-09T14:32:14;1.87;;;1.57;;
14394;SDS011;7282;49.204;10.652;2022-09-09T14:34:41;0.70;;;0.60;;
14394;SDS011;7282;49.204;10.652;2022-09-09T14:37:07;1.00;;;0.60;;
14394;SDS011;7282;49.204;10.652;2022-09-09T14:39:34;0.73;;;0.63;;
14394;SDS011;7282;49.204;10.652;2022-09-09T14:42:01;0.97;;;0.90;;
14394;SDS011;7282;49.204;10.652;2022-09-09T14:44:28;1.03;;;0.50;;
14394;SDS011;7282;49.204;10.652;2022-09-09T14:46:55;0.70;;;0.60;;
14394;SDS011;7282;49.204;10.652;2022-09-09T14:49:21;0.80;;;0.80;;
14394;SDS011;7282;49.204;10.652;2022-09-09T14:51:48;0.67;;;0.60;;
14394;SDS011;7282;49.204;10.652;2022-09-09T14:54:15;1.10;;;0.70;;
14394;SDS011;7282;49.204;10.652;2022-09-09T14:56:42;1.43;;;0.70;;
14394;SDS011;7282;49.204;10.652;2022-09-09T14:59:08;2.13;;;0.90;;
14394;SDS011;7282;49.204;10.652;2022-09-09T15:01:35;1.53;;;0.80;;
14394;SDS011;7282;49.204;10.652;2022-09-09T15:04:03;0.60;;;0.60;;
14394;SDS011;7282;49.204;10.652;2022-09-09T15:06:31;1.10;;;0.67;;
14394;SDS011;7282;49.204;10.652;2022-09-09T15:08:59;0.80;;;0.80;;
14394;SDS011;7282;49.204;10.652;2022-09-09T15:11:26;2.37;;;0.90;;
14394;SDS011;7282;49.204;10.652;2022-09-09T15:13:54;0.87;;;0.70;;
14394;SDS011;7282;49.204;10.652;2022-09-09T15:16:21;1.23;;;0.80;;
14394;SDS011;7282;49.204;10.652;2022-09-09T15:18:50;0.70;;;0.63;;
14394;SDS011;7282;49.204;10.652;2022-09-09T15:21:18;1.47;;;0.67;;
14394;SDS011;7282;49.204;10.652;2022-09-09T15:23:48;1.07;;;0.80;;
14394;SDS011;7282;49.204;10.652;2022-09-09T15:26:15;1.00;;;0.70;;
14394;SDS011;7282;49.204;10.652;2022-09-09T15:28:43;0.90;;;0.80;;
14394;SDS011;7282;49.204;10.652;2022-09-09T15:31:11;2.00;;;0.83;;
14394;SDS011;7282;49.204;10.652;2022-09-09T15:33:40;0.90;;;0.70;;
14394;SDS011;7282;49.204;10.652;2022-09-09T15:36:15;0.80;;;0.50;;
14394;SDS011;7282;49.204;10.652;2022-09-09T15:38:41;0.93;;;0.70;;
14394;SDS011;7282;49.204;10.652;2022-09-09T15:41:09;1.10;;;0.63;;
14394;SDS011;7282;49.204;10.652;2022-09-09T15:43:36;1.20;;;0.70;;
14394;SDS011;7282;49.204;10.652;2022-09-09T15:46:08;1.20;;;0.83;;
14394;SDS011;7282;49.204;10.652;2022-09-09T15:48:32;1.90;;;0.90;;
14394;SDS011;7282;49.204;10.652;2022-09-09T15:51:04;1.93;;;1.23;;
14394;SDS011;7282;49.204;10.652;2022-09-09T15:53:31;1.03;;;0.90;;
14394;SDS011;7282;49.204;10.652;2022-09-09T15:55:58;1.00;;;0.80;;
14394;SDS011;7282;49.204;10.652;2022-09-09T15:58:25;1.80;;;1.00;;
14394;SDS011;7282;49.204;10.652;2022-09-09T16:00:52;1.67;;;1.00;;
14394;SDS011;7282;49.204;10.652;2022-09-09T16:03:18;1.93;;;0.97;;
14394;SDS011;7282;49.204;10.652;2022-09-09T16:05:50;1.57;;;1.03;;
14394;SDS011;7282;49.204;10.652;2022-09-09T16:08:14;1.00;;;0.70;;
14394;SDS011;7282;49.204;10.652;2022-09-09T16:10:41;2.30;;;0.90;;
14394;SDS011;7282;49.204;10.652;2022-09-09T16:13:07;0.80;;;0.70;;
14394;SDS011;7282;49.204;10.652;2022-09-09T16:15:34;1.77;;;0.97;;
14394;SDS011;7282;49.204;10.652;2022-09-09T16:18:01;2.60;;;0.90;;
14394;SDS011;7282;49.204;10.652;2022-09-09T16:20:29;2.73;;;0.90;;
14394;SDS011;7282;49.204;10.652;2022-09-09T16:22:56;1.20;;;0.77;;
14394;SDS011;7282;49.204;10.652;2022-09-09T16:25:23;1.87;;;0.60;;
14394;SDS011;7282;49.204;10.652;2022-09-09T16:27:50;1.93;;;0.80;;
14394;SDS011;7282;49.204;10.652;2022-09-09T16:30:16;1.37;;;0.87;;
14394;SDS011;7282;49.204;10.652;2022-09-09T16:32:43;1.70;;;0.90;;
14394;SDS011;7282;49.204;10.652;2022-09-09T16:35:10;2.47;;;1.00;;